createdAt,value
2023-03-23T15:57:56.698Z,100049.94
2023-03-23T16:00:28.059Z,100089.69
2023-03-23T16:03:04.630Z,100075.25
2023-03-23T16:05:32.202Z,100107.66
2023-03-23T16:07:59.146Z,100077.16
2023-03-23T16:10:27.294Z,100123.88
2023-03-23T16:12:54.881Z,100130.47
2023-03-23T16:15:21.723Z,100041.16
2023-03-23T16:17:48.596Z,100097.06
2023-03-23T16:20:21.872Z,99992.22
2023-03-23T16:22:49.442Z,100081.84
2023-03-23T16:25:17.166Z,100046.59
2023-03-23T16:27:52.404Z,100082.94
2023-03-23T16:30:25.849Z,100027.19
2023-03-23T16:32:54.920Z,100096.63
2023-03-23T16:35:23.746Z,100100.13
2023-03-23T16:38:07.691Z,100106.47
2023-03-23T16:40:36.412Z,100043.09
2023-03-23T16:43:08.456Z,100060.59
2023-03-23T16:45:37.090Z,100101.81
2023-03-23T16:48:04.196Z,100079.09
2023-03-23T16:50:31.113Z,100084.44
2023-03-23T16:52:57.628Z,100065.25
2023-03-23T16:55:26.087Z,100053.84
2023-03-23T16:57:58.183Z,100067.22
2023-03-23T17:00:32.677Z,100030.53
2023-03-23T17:02:59.633Z,100053.06
2023-03-23T17:05:29.002Z,100078.28
2023-03-23T17:07:56.244Z,100042.75
2023-03-23T17:10:24.888Z,100027.53
2023-03-23T17:12:51.306Z,100022.75
2023-03-23T17:15:17.785Z,100064.47
2023-03-23T17:17:44.397Z,100027.41
2023-03-23T17:20:11.246Z,100089.16
2023-03-23T17:22:39.133Z,100046.25
2023-03-23T17:25:07.164Z,100063.16
2023-03-23T17:27:34.106Z,100049.44
2023-03-23T17:30:00.559Z,100079.03
2023-03-23T17:32:26.993Z,100043.84
2023-03-23T17:34:53.439Z,100087.75
2023-03-23T17:37:21.376Z,100082.41
2023-03-23T17:39:48.351Z,100089.63
2023-03-23T17:42:14.884Z,100094.63
2023-03-23T17:44:42.012Z,100035.16
2023-03-23T17:47:08.406Z,100048.34
2023-03-23T17:49:35.391Z,100125.19
2023-03-23T17:52:01.979Z,100079.56
2023-03-23T17:54:31.181Z,100101.47
2023-03-23T17:56:58.675Z,100113.16
2023-03-23T17:59:26.142Z,100115.47
2023-03-23T18:01:53.474Z,100089.91
2023-03-23T18:04:20.361Z,100123.50
2023-03-23T18:06:46.930Z,100123.66
2023-03-23T18:09:13.440Z,100076.34
2023-03-23T18:11:40.021Z,100063.69
2023-03-23T18:14:06.578Z,100135.81
2023-03-23T18:16:33.134Z,100074.00
2023-03-23T18:18:59.849Z,100061.97
2023-03-23T18:21:27.006Z,100135.66
2023-03-23T18:23:59.236Z,100131.28
2023-03-23T18:26:26.699Z,100143.31
2023-03-23T18:28:53.162Z,100128.91
2023-03-23T18:31:21.483Z,100125.94
2023-03-23T18:33:50.245Z,100107.56
2023-03-23T18:36:19.377Z,100097.19
2023-03-23T18:38:46.446Z,100101.34
2023-03-23T18:41:13.817Z,100134.63
2023-03-23T18:43:41.178Z,100113.88
2023-03-23T18:46:08.317Z,100150.81
2023-03-23T18:48:36.078Z,100128.41
2023-03-23T18:51:02.942Z,100131.91
2023-03-23T18:53:29.824Z,100131.28
2023-03-23T18:56:11.132Z,100144.31
2023-03-23T18:58:38.177Z,100153.00
2023-03-23T19:01:08.953Z,100150.00
2023-03-23T19:03:36.407Z,100130.13
2023-03-23T19:06:04.450Z,100157.19
2023-03-23T19:08:31.820Z,100137.00
2023-03-23T19:11:01.734Z,100154.34
2023-03-23T19:13:34.451Z,100148.84
2023-03-23T19:16:01.165Z,100136.50
2023-03-23T19:18:28.269Z,100135.66
2023-03-23T19:21:13.459Z,100135.97
2023-03-23T19:23:42.264Z,100082.16
2023-03-23T19:26:12.400Z,100097.19
2023-03-23T19:31:08.454Z,100152.69
2023-03-23T19:33:34.899Z,100093.50
2023-03-23T19:36:10.161Z,100094.00
2023-03-23T19:38:39.274Z,100107.88
2023-03-23T19:41:06.208Z,100142.16
2023-03-23T19:43:33.700Z,100125.94
2023-03-23T19:46:00.634Z,100123.78
2023-03-23T19:48:27.813Z,100094.53
2023-03-23T19:50:56.293Z,100151.38
2023-03-23T19:53:23.364Z,100139.34
2023-03-23T19:55:51.211Z,100145.22
2023-03-23T19:58:17.870Z,100135.00
2023-03-23T20:00:45.291Z,100112.47
2023-03-23T20:03:12.702Z,100113.16
2023-03-23T20:05:40.748Z,100106.31
2023-03-23T20:08:09.103Z,100116.00
2023-03-23T20:10:35.823Z,100038.16
2023-03-23T20:13:03.514Z,100086.06
2023-03-23T20:15:31.276Z,100119.34
2023-03-23T20:17:58.414Z,100112.16
2023-03-23T20:20:25.719Z,100105.97
2023-03-23T20:22:54.506Z,100117.00
2023-03-23T20:25:22.702Z,100110.66
2023-03-23T20:27:49.294Z,100089.09
2023-03-23T20:30:17.093Z,99984.22
2023-03-23T20:32:46.501Z,100109.47
2023-03-23T20:35:14.616Z,100117.50
2023-03-23T20:37:41.255Z,100069.03
2023-03-23T20:40:11.644Z,100100.47
2023-03-23T20:42:39.067Z,100111.97
2023-03-23T20:45:08.397Z,100109.47
2023-03-23T20:47:34.888Z,100114.50
2023-03-23T20:50:01.899Z,100028.13
2023-03-23T20:52:28.561Z,100045.16
2023-03-23T20:54:55.803Z,100092.63
2023-03-23T20:57:23.585Z,100097.16
2023-03-23T20:59:53.481Z,100100.31
2023-03-23T21:02:20.176Z,100103.34
2023-03-23T21:04:47.501Z,100084.97
2023-03-23T21:07:13.869Z,100087.78
2023-03-23T21:09:41.388Z,100067.25
2023-03-23T21:12:09.468Z,100085.59
2023-03-23T21:14:38.577Z,100068.09
2023-03-23T21:17:06.506Z,100088.44
2023-03-23T21:19:33.911Z,100042.84
2023-03-23T21:22:00.427Z,100002.59
2023-03-23T21:24:29.911Z,100095.09
2023-03-23T21:26:59.807Z,100079.09
2023-03-23T21:29:27.534Z,100083.25
2023-03-23T21:32:07.018Z,100092.78
2023-03-23T21:34:36.734Z,100088.25
2023-03-23T21:37:03.418Z,100084.25
2023-03-23T21:39:29.981Z,100039.50
2023-03-23T21:41:59.197Z,100066.84
2023-03-23T21:44:25.610Z,100044.47
2023-03-23T21:46:54.850Z,100054.47
2023-03-23T21:49:21.539Z,100061.81
2023-03-23T21:51:49.404Z,100045.75
2023-03-23T21:54:15.867Z,100017.69
2023-03-23T21:56:42.580Z,100054.41
2023-03-23T21:59:09.118Z,100043.84
2023-03-23T22:01:40.289Z,100037.97
2023-03-23T22:04:07.783Z,100023.91
2023-03-23T22:06:35.241Z,100031.75
2023-03-23T22:09:05.251Z,100023.56
2023-03-23T22:11:32.697Z,100012.38
2023-03-23T22:14:00.379Z,100026.19
2023-03-23T22:16:27.808Z,99960.31
2023-03-23T22:18:56.987Z,100016.78
2023-03-23T22:21:27.004Z,100015.44
2023-03-23T22:23:56.764Z,100016.06
2023-03-23T22:26:24.832Z,99997.91
2023-03-23T22:28:52.005Z,99983.19
2023-03-23T22:31:24.142Z,100002.31
2023-03-23T22:33:56.244Z,99995.47
2023-03-23T22:36:25.390Z,99955.63
2023-03-23T22:38:53.133Z,99982.19
2023-03-23T22:41:24.989Z,99968.78
2023-03-23T22:43:52.036Z,99975.19
2023-03-23T22:46:18.643Z,99909.69
2023-03-23T22:48:45.771Z,99886.84
2023-03-23T22:51:15.169Z,99965.16
2023-03-23T22:53:41.899Z,99887.16
2023-03-23T22:56:09.144Z,99918.16
2023-03-23T22:58:36.112Z,99955.28
2023-03-23T23:01:07.615Z,99936.91
2023-03-23T23:03:35.328Z,99890.91
2023-03-23T23:06:02.081Z,99903.53
2023-03-23T23:08:30.456Z,99905.03
2023-03-23T23:10:58.976Z,99914.47
2023-03-23T23:13:26.612Z,99916.81
2023-03-23T23:15:55.365Z,99924.56
2023-03-23T23:18:22.757Z,99875.94
2023-03-23T23:20:55.398Z,99919.69
2023-03-23T23:23:23.644Z,99858.25
2023-03-23T23:25:50.697Z,99858.84
2023-03-23T23:28:18.046Z,99893.94
2023-03-23T23:30:45.621Z,99879.06
2023-03-23T23:33:12.356Z,99867.69
2023-03-23T23:35:40.484Z,99834.41
2023-03-23T23:38:09.564Z,99857.53
2023-03-23T23:40:36.634Z,99859.22
2023-03-23T23:43:04.345Z,99883.63
2023-03-23T23:45:31.561Z,99852.28
2023-03-23T23:47:59.090Z,99788.22
2023-03-23T23:50:26.548Z,99837.13
2023-03-23T23:52:53.151Z,99869.94
2023-03-23T23:55:20.820Z,99802.28
2023-03-23T23:57:48.741Z,99864.47
